Terminal Aerodrome Forecast
Issued by NWS

Home | Current Version | Previous Version | Text Only | Print | Product List | Glossary On
Versions: 1 2 3 4 5 6 7 8 9 10 11 12 13 14 15 16 17 18 19 20 21 22 23 24 25 26 27 28 29 30 31 32 33 34 35
000
FTUS42 KCAE 190523
TAFOGB
TAF
KOGB 190523Z 1906/2006 21012G24KT P6SM BKN035 WS010/22040KT
      TEMPO 1907/1909 30014G27KT 3SM SHRA OVC020
     FM190900 30012G22KT P6SM -RA OVC020
     FM191300 31012G18KT P6SM SCT035
     FM191800 30010KT P6SM SKC=

USA.gov is the U.S. government's official web portal to all federal, state and local government web resources and services.